Time;durP1;ratioP1;P1;durP2;ratioP2;P2;SDS_P1;SDS_P2;PMS_P1;PMS_P2;Temp;Humidity;BMP_temperature;BMP_pressure;BME280_temperature;BME280_humidity;BME280_pressure;Samples;Min_cycle;Max_cycle;Signal;HPM_P1;HPM_P2
2022/09/10 00:02:20;;;;;;;4.50;3.25;;;;;;;12.14;49.83;101555.50;1714678;82;21583;-57
2022/09/10 00:05:26;;;;;;;5.30;3.10;;;;;;;12.13;49.85;101559.77;1714733;83;21219;-57
2022/09/10 00:08:33;;;;;;;4.35;3.00;;;;;;;12.08;49.85;101557.50;1714966;82;21255;-58
2022/09/10 00:11:39;;;;;;;5.65;3.15;;;;;;;12.08;49.92;101558.00;1714848;83;21187;-58
2022/09/10 00:14:45;;;;;;;4.30;2.98;;;;;;;12.07;49.91;101559.04;1714934;83;21211;-59
2022/09/10 00:17:52;;;;;;;6.10;3.40;;;;;;;12.05;50.02;101560.04;1705349;82;21246;-57
2022/09/10 00:21:02;;;;;;;5.20;3.08;;;;;;;12.07;50.05;101554.92;1714863;83;21246;-58
2022/09/10 00:24:09;;;;;;;6.83;3.22;;;;;;;12.08;50.13;101550.11;1714731;82;21187;-59
2022/09/10 00:27:15;;;;;;;6.78;3.47;;;;;;;12.10;50.14;101536.23;1714744;82;21255;-57
2022/09/10 00:30:21;;;;;;;5.87;3.30;;;;;;;12.07;50.12;101541.20;1714765;83;21267;-60
2022/09/10 00:33:27;;;;;;;5.17;2.75;;;;;;;12.10;50.19;101541.72;1723862;81;21211;-59
2022/09/10 00:36:39;;;;;;;3.92;2.90;;;;;;;12.13;50.25;101551.54;1714943;83;21271;-58
2022/09/10 00:39:46;;;;;;;5.10;2.98;;;;;;;12.13;50.26;101553.75;1714797;83;21207;-58
2022/09/10 00:42:52;;;;;;;8.13;3.20;;;;;;;12.15;50.28;101560.45;1711481;82;21528;-58
2022/09/10 00:46:01;;;;;;;8.53;3.00;;;;;;;12.13;50.21;101561.15;1727796;83;21211;-58
2022/09/10 00:49:10;;;;;;;5.20;3.02;;;;;;;12.12;50.25;101560.77;1714773;82;21211;-58
2022/09/10 00:52:16;;;;;;;4.97;3.10;;;;;;;12.12;50.34;101552.04;1714886;82;21274;-59
2022/09/10 00:55:22;;;;;;;4.87;3.37;;;;;;;12.15;50.38;101542.61;1715043;83;21223;-59
2022/09/10 00:58:28;;;;;;;4.65;3.22;;;;;;;12.15;50.39;101539.87;1711393;82;21211;-59
2022/09/10 01:01:34;;;;;;;6.12;3.50;;;;;;;12.13;50.35;101535.91;1714968;83;21195;-58
2022/09/10 01:04:40;;;;;;;5.28;3.27;;;;;;;12.10;50.37;101536.77;1714862;82;21242;-60
2022/09/10 01:07:47;;;;;;;4.53;3.60;;;;;;;12.07;50.33;101548.06;1714734;82;21211;-58
2022/09/10 01:11:41;;;;;;;5.42;3.22;;;;;;;12.02;50.36;101545.76;1714829;83;21199;-60
2022/09/10 01:15:14;;;;;;;4.42;3.35;;;;;;;11.97;50.41;101549.51;1714877;83;21234;-58
2022/09/10 01:18:34;;;;;;;4.20;2.90;;;;;;;11.95;50.53;101547.42;1723041;81;21199;-58
2022/09/10 01:22:02;;;;;;;4.90;3.40;;;;;;;11.95;50.59;101551.54;1674773;85;21188;-58
2022/09/10 01:25:47;;;;;;;4.83;3.50;;;;;;;11.96;50.67;101554.12;1673101;85;21213;-59
2022/09/10 01:29:08;;;;;;;6.65;3.30;;;;;;;11.99;50.74;101555.68;1674836;84;21228;-57
2022/09/10 01:32:35;;;;;;;5.33;3.17;;;;;;;11.99;50.70;101563.41;1674863;84;21264;-59
2022/09/10 01:35:55;;;;;;;4.40;3.10;;;;;;;11.99;50.76;101571.65;1674813;85;21196;-59
2022/09/10 01:39:01;;;;;;;4.37;3.25;;;;;;;11.99;50.77;101573.52;1674857;84;21276;-58
2022/09/10 01:42:11;;;;;;;9.53;3.70;;;;;;;11.97;50.78;101571.46;1648343;85;21220;-59
2022/09/10 01:45:23;;;;;;;5.70;3.22;;;;;;;11.95;50.81;101569.37;1630878;85;21237;-59
2022/09/10 01:48:52;;;;;;;5.58;3.17;;;;;;;11.93;50.85;101565.91;1674814;84;21569;-58
2022/09/10 01:52:34;;;;;;;8.60;3.33;;;;;;;11.91;50.91;101566.07;1674820;85;21256;-60
2022/09/10 01:56:01;;;;;;;5.62;3.47;;;;;;;11.87;50.97;101570.16;1674782;85;21256;-58
2022/09/10 01:59:17;;;;;;;4.80;3.27;;;;;;;11.81;51.01;101561.69;1674804;84;21224;-57
2022/09/10 02:02:30;;;;;;;5.15;3.65;;;;;;;11.75;51.14;101565.89;1674798;84;21212;-57
2022/09/10 02:05:38;;;;;;;4.85;3.50;;;;;;;11.72;51.25;101563.47;1674607;85;21256;-58
2022/09/10 02:08:45;;;;;;;5.62;3.47;;;;;;;11.68;51.31;101560.69;1674873;84;21217;-58
2022/09/10 02:11:57;;;;;;;4.47;3.45;;;;;;;11.65;51.33;101565.61;1674855;85;21193;-57
2022/09/10 02:15:04;;;;;;;;;;;;;;;11.62;51.43;101565.89;1677471;85;21216;-59
2022/09/10 02:18:11;;;;;;;4.53;3.85;;;;;;;11.56;51.46;101556.91;1683194;84;20208;-58
2022/09/10 02:21:17;;;;;;;8.25;3.72;;;;;;;11.52;51.58;101560.96;1735042;82;21207;-58
2022/09/10 02:24:26;;;;;;;5.05;4.00;;;;;;;11.50;51.65;101569.84;1667540;85;21248;-58
2022/09/10 02:27:31;;;;;;;5.87;3.98;;;;;;;11.45;51.70;101571.67;1650760;84;21189;-58
2022/09/10 02:30:37;;;;;;;5.90;3.83;;;;;;;11.43;51.79;101567.38;1650915;86;21201;-58
2022/09/10 02:33:42;;;;;;;4.47;3.87;;;;;;;11.40;51.82;101570.42;1667702;84;21232;-57
2022/09/10 02:36:50;;;;;;;5.42;4.25;;;;;;;11.35;51.89;101564.52;1667644;85;21201;-57
2022/09/10 02:40:00;;;;;;;5.97;4.17;;;;;;;11.29;51.91;101561.87;1667431;86;21216;-57
2022/09/10 02:42:59;;;;;;;7.20;4.30;;;;;;;11.23;51.99;101564.34;1667132;84;21276;-57
2022/09/10 02:46:08;;;;;;;6.58;4.30;;;;;;;11.20;52.10;101564.16;1667034;86;21252;-57
2022/09/10 02:49:14;;;;;;;7.33;4.00;;;;;;;11.15;52.12;101560.13;1667112;84;21248;-57
2022/09/10 02:52:20;;;;;;;5.75;4.10;;;;;;;11.10;52.18;101557.00;1667073;85;21209;-58
2022/09/10 02:55:27;;;;;;;6.12;4.62;;;;;;;11.05;52.34;101550.58;1667328;86;21264;-59
2022/09/10 02:58:33;;;;;;;6.58;4.50;;;;;;;11.05;52.44;101551.11;1667012;84;21225;-59
2022/09/10 03:01:39;;;;;;;7.25;5.37;;;;;;;10.99;52.44;101548.97;1667062;86;21268;-59
2022/09/10 03:04:46;;;;;;;8.75;5.92;;;;;;;10.96;52.58;101549.24;1667064;86;21315;-58
2022/09/10 03:07:51;;;;;;;7.72;6.00;;;;;;;10.97;52.72;101550.50;1667110;84;21300;-57
2022/09/10 03:10:58;;;;;;;7.35;6.03;;;;;;;10.99;52.84;101555.30;1667061;86;21219;-58
2022/09/10 03:14:05;;;;;;;7.28;5.30;;;;;;;10.99;52.92;101548.44;1667534;84;21236;-58
2022/09/10 03:17:11;;;;;;;6.05;4.70;;;;;;;11.01;53.01;101540.95;1667561;86;21265;-58
2022/09/10 03:20:17;;;;;;;6.22;4.62;;;;;;;11.03;53.10;101545.77;1663685;85;21272;-57
2022/09/10 03:23:27;;;;;;;6.20;4.58;;;;;;;11.06;53.15;101548.22;1656610;85;21233;-57
2022/09/10 03:26:35;;;;;;;6.58;4.78;;;;;;;11.07;53.21;101546.34;1673142;86;21265;-57
2022/09/10 03:29:44;;;;;;;6.33;4.72;;;;;;;11.06;53.25;101545.97;1657274;85;21198;-58
2022/09/10 03:32:53;;;;;;;7.35;5.05;;;;;;;11.00;53.19;101540.60;1673118;84;21265;-57
2022/09/10 03:36:01;;;;;;;5.78;5.17;;;;;;;10.94;53.25;101540.33;1673154;86;21205;-58
2022/09/10 03:39:07;;;;;;;8.63;5.80;;;;;;;10.90;53.33;101540.26;1673228;84;21265;-57
2022/09/10 03:42:14;;;;;;;9.05;5.83;;;;;;;10.86;53.48;101547.91;1673133;86;21198;-58
2022/09/10 03:45:19;;;;;;;8.28;5.67;;;;;;;10.84;53.57;101550.45;1673209;86;21417;-57
2022/09/10 03:48:26;;;;;;;7.20;5.67;;;;;;;10.85;53.71;101546.69;1673080;84;21253;-58
2022/09/10 03:51:33;;;;;;;9.80;5.22;;;;;;;10.87;53.80;101534.59;1673110;86;21265;-57
2022/09/10 03:54:38;;;;;;;5.97;5.08;;;;;;;10.86;53.80;101527.89;1658176;85;21257;-58
2022/09/10 03:57:44;;;;;;;6.40;4.70;;;;;;;10.79;53.75;101526.75;1654980;84;21269;-57
2022/09/10 04:00:51;;;;;;;5.78;5.03;;;;;;;10.79;53.89;101534.96;1673382;86;21217;-59
2022/09/10 04:04:03;;;;;;;6.40;4.78;;;;;;;10.77;53.95;101537.85;1673139;84;21269;-58
2022/09/10 04:07:12;;;;;;;7.20;4.97;;;;;;;10.79;54.08;101541.31;1673392;86;21305;-58
2022/09/10 04:10:19;;;;;;;8.43;5.55;;;;;;;10.82;54.12;101548.36;1673153;86;21214;-57
2022/09/10 04:13:26;;;;;;;6.75;5.45;;;;;;;10.83;54.16;101536.41;1673149;84;21205;-59
2022/09/10 04:16:34;;;;;;;7.45;5.70;;;;;;;10.87;54.26;101531.84;1673122;86;21174;-58
2022/09/10 04:19:43;;;;;;;6.30;5.35;;;;;;;10.91;54.30;101528.31;1673231;85;21209;-57
2022/09/10 04:22:50;;;;;;;6.25;5.00;;;;;;;10.93;54.33;101526.26;1676583;84;21337;-58
2022/09/10 04:25:58;;;;;;;6.60;4.78;;;;;;;10.93;54.34;101533.11;1678313;85;21254;-58
2022/09/10 04:29:07;;;;;;;8.10;4.97;;;;;;;10.94;54.42;101525.27;1729510;81;21215;-58
2022/09/10 04:32:14;;;;;;;7.20;5.33;;;;;;;10.97;54.50;101524.47;1664404;86;21290;-58
2022/09/10 04:35:21;;;;;;;6.87;4.70;;;;;;;11.03;54.55;101516.13;1729560;82;21183;-59
2022/09/10 04:38:29;;;;;;;9.55;5.33;;;;;;;11.03;54.49;101521.61;1674393;84;21262;-57
2022/09/10 04:41:38;;;;;;;9.23;5.08;;;;;;;10.97;54.48;101511.27;1674593;85;21245;-58
2022/09/10 04:44:43;;;;;;;6.95;4.85;;;;;;;10.99;54.61;101510.61;1664123;85;21256;-58
2022/09/10 04:47:53;;;;;;;8.23;5.35;;;;;;;11.04;54.68;101515.10;1674874;84;21224;-57
2022/09/10 04:51:00;;;;;;;10.28;5.50;;;;;;;11.06;54.74;101517.20;1674825;85;21236;-58
2022/09/10 04:54:13;;;;;;;7.00;5.37;;;;;;;11.11;54.78;101508.89;1675003;84;21244;-57
2022/09/10 04:57:20;;;;;;;6.65;5.25;;;;;;;11.14;54.77;101502.23;1652271;84;21224;-57
2022/09/10 05:00:27;;;;;;;7.83;5.53;;;;;;;11.20;54.89;101509.34;1674514;85;21209;-59
2022/09/10 05:03:33;;;;;;;8.23;5.37;;;;;;;11.28;54.93;101505.83;1664264;85;21276;-58
2022/09/10 05:06:40;;;;;;;7.12;5.47;;;;;;;11.33;54.89;101499.38;1729807;82;21247;-59
2022/09/10 05:09:48;;;;;;;8.00;5.58;;;;;;;11.38;54.91;101502.03;1664717;86;21205;-59
2022/09/10 05:12:53;;;;;;;7.37;5.10;;;;;;;11.44;54.96;101497.80;1729357;81;21215;-58
2022/09/10 05:16:01;;;;;;;8.43;5.97;;;;;;;11.54;55.00;101499.97;1674785;85;21235;-58
2022/09/10 05:19:16;;;;;;;7.40;5.55;;;;;;;11.59;55.00;101498.47;1674445;84;21370;-57
2022/09/10 05:22:18;;;;;;;7.87;5.37;;;;;;;11.63;54.93;101496.33;1669673;83;21264;-57
2022/09/10 05:25:26;;;;;;;8.80;6.00;;;;;;;11.64;54.91;101495.30;1648191;86;21711;-57
2022/09/10 05:28:32;;;;;;;7.33;5.30;;;;;;;11.65;54.94;101490.18;1647857;87;21297;-57
2022/09/10 05:31:42;;;;;;;7.22;5.00;;;;;;;11.68;54.96;101497.59;1635255;88;21266;-57
2022/09/10 05:34:48;;;;;;;8.48;5.20;;;;;;;11.69;54.99;101508.91;1635239;88;21696;-58
2022/09/10 05:37:57;;;;;;;6.40;4.90;;;;;;;11.76;55.06;101511.90;1649136;87;21269;-58
2022/09/10 05:41:03;;;;;;;7.58;4.40;;;;;;;11.81;55.06;101502.16;1636588;86;21218;-58
2022/09/10 05:44:10;;;;;;;6.92;4.97;;;;;;;11.82;55.05;101503.91;1648643;87;22073;-59
2022/09/10 05:47:16;;;;;;;9.08;6.08;;;;;;;11.85;55.03;101506.84;1655609;85;21204;-58
2022/09/10 05:50:24;;;;;;;13.35;8.50;;;;;;;11.85;55.06;101503.59;1660858;86;21256;-60
2022/09/10 05:53:29;;;;;;;13.55;8.55;;;;;;;11.91;55.14;101510.31;1660227;85;21255;-59
2022/09/10 05:56:37;;;;;;;11.28;8.30;;;;;;;11.93;55.14;101502.30;1696208;84;21398;-58
2022/09/10 05:59:45;;;;;;;12.15;7.80;;;;;;;11.91;55.13;101503.45;1695042;84;21525;-59
2022/09/10 06:02:51;;;;;;;13.40;8.93;;;;;;;11.93;55.13;101507.78;1695046;84;21268;-58
2022/09/10 06:05:59;;;;;;;13.70;8.28;;;;;;;11.98;55.20;101505.94;1694926;84;21198;-57
2022/09/10 06:09:11;;;;;;;12.25;6.80;;;;;;;12.00;55.18;101503.91;1681081;84;21205;-60
2022/09/10 06:12:19;;;;;;;10.78;6.97;;;;;;;12.04;55.26;101495.70;1694989;84;21579;-60
2022/09/10 06:15:27;;;;;;;8.63;5.95;;;;;;;12.10;55.31;101486.82;1694930;84;21193;-58
2022/09/10 06:18:33;;;;;;;11.28;5.80;;;;;;;12.11;55.22;101478.95;1694996;84;21849;-59
2022/09/10 06:21:42;;;;;;;7.40;5.30;;;;;;;12.12;55.26;101475.18;1692278;84;21222;-58
2022/09/10 06:24:52;;;;;;;9.43;6.72;;;;;;;12.11;55.19;101457.00;1747261;81;21227;-58
2022/09/10 06:28:00;;;;;;;14.20;8.73;;;;;;;12.11;55.20;101453.38;1697293;83;21286;-59
2022/09/10 06:31:10;;;;;;;10.53;7.00;;;;;;;12.12;55.23;101457.34;1707077;83;21223;-59
2022/09/10 06:34:17;;;;;;;13.20;7.70;;;;;;;12.13;55.23;101463.17;1712064;83;21365;-59
2022/09/10 06:37:25;;;;;;;11.53;7.35;;;;;;;12.14;55.28;101454.43;1683807;85;21266;-58
2022/09/10 06:40:32;;;;;;;9.63;6.60;;;;;;;12.14;55.29;101446.20;1684096;85;21349;-59
2022/09/10 06:43:41;;;;;;;7.45;5.08;;;;;;;12.17;55.37;101448.12;1695624;83;21288;-58
2022/09/10 06:46:43;;;;;;;8.25;5.03;;;;;;;12.21;55.38;101442.64;1698645;83;21202;-59
2022/09/10 06:49:40;;;;;;;9.53;5.20;;;;;;;12.26;55.40;101448.52;1694250;84;21201;-58
2022/09/10 06:52:47;;;;;;;6.30;4.28;;;;;;;12.30;55.38;101450.44;1705293;82;21223;-58
2022/09/10 06:55:56;;;;;;;6.15;4.50;;;;;;;12.34;55.41;101455.94;1705770;84;21191;-60
2022/09/10 06:59:02;;;;;;;7.47;4.22;;;;;;;12.36;55.35;101464.39;1758961;80;21840;-58
2022/09/10 07:02:11;;;;;;;9.73;4.20;;;;;;;12.37;55.31;101478.45;1702551;84;21208;-58
2022/09/10 07:05:17;;;;;;;5.75;4.10;;;;;;;12.39;55.37;101470.05;1702090;84;21201;-59
2022/09/10 07:08:26;;;;;;;10.03;4.70;;;;;;;12.41;55.36;101464.77;1701660;83;21268;-59
2022/09/10 07:11:35;;;;;;;10.15;5.10;;;;;;;12.45;55.39;101469.41;1701962;84;21331;-59
2022/09/10 07:14:41;;;;;;;6.00;4.90;;;;;;;12.50;55.44;101458.80;1699039;84;21201;-59
2022/09/10 07:17:49;;;;;;;10.58;5.15;;;;;;;12.52;55.40;101459.52;1691148;83;21754;-58
2022/09/10 07:20:58;;;;;;;7.12;5.62;;;;;;;12.54;55.39;101470.67;1759547;81;21219;-59
2022/09/10 07:24:13;;;;;;;11.45;7.65;;;;;;;12.58;55.37;101470.72;1756491;80;21334;-60
2022/09/10 07:27:23;;;;;;;11.70;8.70;;;;;;;12.62;55.35;101480.34;1697596;82;21725;-59
2022/09/10 07:30:29;;;;;;;8.63;6.30;;;;;;;12.67;55.41;101482.09;1673790;85;21240;-59
2022/09/10 07:33:38;;;;;;;8.15;5.65;;;;;;;12.76;55.43;101479.77;1676644;84;21228;-59
2022/09/10 07:36:46;;;;;;;10.60;5.17;;;;;;;12.77;55.32;101469.11;1684104;84;21226;-60
2022/09/10 07:39:55;;;;;;;8.45;4.45;;;;;;;12.80;55.33;101478.40;1686481;84;21205;-59
2022/09/10 07:43:02;;;;;;;15.60;5.90;;;;;;;12.83;55.30;101483.56;1679308;84;21793;-59
2022/09/10 07:46:07;;;;;;;7.92;4.65;;;;;;;12.89;55.33;101481.53;1681132;84;21735;-59
2022/09/10 07:49:16;;;;;;;6.67;4.87;;;;;;;12.93;55.31;101482.94;1685050;84;21212;-59
2022/09/10 07:52:23;;;;;;;10.48;4.83;;;;;;;12.97;55.31;101480.20;1700311;83;21287;-58
2022/09/10 07:55:30;;;;;;;8.13;4.70;;;;;;;13.03;55.33;101488.34;1709403;84;21219;-60
2022/09/10 07:58:40;;;;;;;7.03;4.00;;;;;;;13.07;55.28;101486.47;1707572;83;21222;-58
2022/09/10 08:01:46;;;;;;;7.70;4.20;;;;;;;13.10;55.28;101490.27;1666088;86;21201;-59
2022/09/10 08:04:54;;;;;;;8.83;4.25;;;;;;;13.15;55.25;101485.13;1673977;85;21260;-58
2022/09/10 08:08:01;;;;;;;8.08;3.98;;;;;;;13.21;55.31;101486.34;1673752;84;22030;-63
2022/09/10 08:11:23;;;;;;;6.92;4.62;;;;;;;13.30;55.34;101488.95;1694922;84;21236;-59
2022/09/10 08:14:33;;;;;;;6.50;4.00;;;;;;;13.40;55.32;101478.69;1701301;84;21253;-59
2022/09/10 08:17:40;;;;;;;8.05;4.17;;;;;;;13.48;55.25;101476.47;1701153;84;21777;-60
2022/09/10 08:20:48;;;;;;;7.28;3.90;;;;;;;13.51;55.15;101479.75;1700986;84;21225;-58
2022/09/10 08:23:59;;;;;;;6.75;3.67;;;;;;;13.53;55.14;101473.57;1697677;84;21695;-59
2022/09/10 08:27:13;;;;;;;5.60;3.95;;;;;;;13.57;55.04;101476.85;1685291;82;21762;-58
2022/09/10 08:30:20;;;;;;;7.53;4.65;;;;;;;13.62;55.10;101474.97;1734633;81;21705;-58
2022/09/10 08:33:26;;;;;;;7.03;5.25;;;;;;;13.66;55.04;101469.45;1715497;82;21778;-58
2022/09/10 08:36:31;;;;;;;7.90;4.33;;;;;;;13.68;55.02;101470.16;1735473;81;21182;-59
2022/09/10 08:39:39;;;;;;;7.05;4.92;;;;;;;13.71;55.06;101462.94;1734814;81;21194;-59
2022/09/10 08:42:57;;;;;;;8.35;5.05;;;;;;;13.76;55.07;101464.16;1734615;81;21770;-58
2022/09/10 08:46:03;;;;;;;6.80;4.90;;;;;;;13.83;55.10;101458.30;1734459;82;21202;-58
2022/09/10 08:49:17;;;;;;;7.08;4.10;;;;;;;13.90;55.07;101450.23;1734479;81;21233;-58
2022/09/10 08:52:41;;;;;;;5.45;3.90;;;;;;;13.95;55.04;101450.08;1735898;81;21194;-59
2022/09/10 08:55:58;;;;;;;8.93;4.00;;;;;;;13.98;55.02;101450.23;1701775;84;21197;-58
2022/09/10 08:59:32;;;;;;;9.35;3.52;;;;;;;14.04;55.01;101457.29;1687867;83;21303;-57
2022/09/10 09:03:03;;;;;;;7.60;4.10;;;;;;;14.09;54.98;101459.52;1668556;84;21745;-59
2022/09/10 09:06:14;;;;;;;8.08;3.67;;;;;;;14.09;54.91;101460.91;1684942;85;21738;-58
2022/09/10 09:09:21;;;;;;;6.08;3.35;;;;;;;14.11;54.92;101472.61;1691572;83;21231;-58
2022/09/10 09:12:55;;;;;;;7.28;3.62;;;;;;;14.12;54.88;101466.06;1687973;84;21209;-59
2022/09/10 09:16:38;;;;;;;7.50;3.45;;;;;;;14.10;54.84;101466.73;1687701;84;21280;-60
2022/09/10 09:20:07;;;;;;;7.08;4.28;;;;;;;14.08;54.88;101466.08;1667958;86;21272;-60
2022/09/10 09:23:27;;;;;;;7.87;4.17;;;;;;;14.07;54.83;101462.45;1705045;84;21553;-59
2022/09/10 09:26:43;;;;;;;5.12;3.85;;;;;;;14.08;54.86;101452.30;1706249;80;21309;-59
2022/09/10 09:30:11;;;;;;;7.25;3.70;;;;;;;14.14;54.90;101451.61;1676031;85;21216;-59
2022/09/10 09:33:26;;;;;;;6.90;3.92;;;;;;;14.24;54.89;101449.04;1703276;84;21296;-59
2022/09/10 09:36:43;;;;;;;12.93;3.98;;;;;;;14.28;54.84;101446.30;1705896;84;21197;-60
2022/09/10 09:40:26;;;;;;;7.55;4.28;;;;;;;14.35;54.83;101446.47;1715583;83;21352;-61
2022/09/10 09:43:40;;;;;;;7.12;4.00;;;;;;;14.39;54.78;101442.31;1683083;85;21305;-59
2022/09/10 09:46:48;;;;;;;8.40;3.42;;;;;;;14.45;54.81;101436.10;1711897;83;21254;-59
2022/09/10 09:49:55;;;;;;;9.38;4.03;;;;;;;14.53;54.83;101431.45;1713047;82;21665;-60
2022/09/10 09:53:02;;;;;;;14.33;4.30;;;;;;;14.63;54.77;101434.00;1706514;84;21377;-59
2022/09/10 09:56:14;;;;;;;8.35;3.87;;;;;;;14.69;54.74;101437.42;1712354;83;21210;-60
2022/09/10 09:59:41;;;;;;;6.72;3.87;;;;;;;14.70;54.61;101433.11;1713504;83;21357;-60
2022/09/10 10:02:48;;;;;;;6.33;3.72;;;;;;;14.72;54.57;101430.18;1714147;83;21731;-60
2022/09/10 10:06:00;;;;;;;10.58;4.25;;;;;;;14.74;54.55;101422.09;1713532;84;21198;-60
2022/09/10 10:09:32;;;;;;;8.23;4.53;;;;;;;14.82;54.58;101426.20;1699548;84;21222;-59
2022/09/10 10:12:37;;;;;;;9.08;4.10;;;;;;;14.90;54.54;101428.89;1713080;83;21207;-60
2022/09/10 10:15:47;;;;;;;5.80;3.75;;;;;;;14.98;54.54;101433.54;1713369;83;21771;-58
2022/09/10 10:18:54;;;;;;;5.05;3.72;;;;;;;15.03;54.48;101429.19;1713404;83;21244;-60
2022/09/10 10:22:02;;;;;;;7.47;3.60;;;;;;;15.11;54.45;101426.91;1701672;84;21534;-58
2022/09/10 10:25:11;;;;;;;8.43;3.70;;;;;;;15.17;54.41;101420.70;1712518;84;21528;-59
2022/09/10 10:28:31;;;;;;;5.62;3.77;;;;;;;15.23;54.34;101422.73;1706446;82;21534;-60
2022/09/10 10:31:48;;;;;;;8.83;4.30;;;;;;;15.28;54.28;101420.30;1714038;83;21230;-59
2022/09/10 10:35:05;;;;;;;6.83;3.62;;;;;;;15.32;54.21;101420.25;1700132;84;21210;-58
2022/09/10 10:38:42;;;;;;;8.45;3.30;;;;;;;15.32;54.11;101417.49;1706031;84;21238;-58
2022/09/10 10:41:43;;;;;;;5.58;3.12;;;;;;;15.33;54.12;101418.36;1708487;84;21763;-59
2022/09/10 10:45:30;;;;;;;5.62;3.47;;;;;;;15.36;54.13;101420.25;1685278;85;21234;-60
2022/09/10 10:49:15;;;;;;;4.80;3.80;;;;;;;15.34;54.01;101414.04;1694334;82;21222;-60
2022/09/10 10:52:34;;;;;;;5.25;3.02;;;;;;;15.25;53.91;101419.28;1700745;84;21589;-59
2022/09/10 10:56:06;;;;;;;8.33;3.85;;;;;;;15.21;53.94;101409.63;1707709;84;21254;-60
2022/09/10 10:59:43;;;;;;;8.35;3.12;;;;;;;15.23;54.02;101402.04;1759445;80;21729;-60
2022/09/10 11:03:13;;;;;;;4.15;3.10;;;;;;;15.27;53.97;101397.02;1701725;84;21279;-60
2022/09/10 11:06:29;;;;;;;7.25;3.80;;;;;;;15.32;53.97;101391.83;1702024;84;21193;-58
2022/09/10 11:09:49;;;;;;;6.08;3.75;;;;;;;15.39;53.96;101385.93;1679244;84;21284;-59
2022/09/10 11:13:08;;;;;;;4.67;2.95;;;;;;;15.41;53.87;101381.09;1699978;83;21224;-58
2022/09/10 11:16:20;;;;;;;7.05;3.15;;;;;;;15.41;53.78;101375.07;1691315;84;21190;-59
2022/09/10 11:20:03;;;;;;;7.50;3.83;;;;;;;15.38;53.76;101369.88;1759191;80;21229;-60
2022/09/10 11:23:53;;;;;;;6.47;3.55;;;;;;;15.32;53.67;101369.20;1758897;81;21212;-59
2022/09/10 11:27:35;;;;;;;6.10;3.47;;;;;;;15.28;53.72;101373.39;1759812;81;21200;-61
2022/09/10 11:30:43;;;;;;;5.53;3.92;;;;;;;15.24;53.74;101372.02;1758111;80;21228;-60
2022/09/10 11:34:14;;;;;;;13.10;4.10;;;;;;;15.22;53.74;101369.11;1765175;81;21710;-59
2022/09/10 11:38:01;;;;;;;7.20;4.28;;;;;;;15.23;53.76;101372.20;1759186;81;21197;-58
2022/09/10 11:41:27;;;;;;;6.42;4.40;;;;;;;15.21;53.70;101361.35;1759464;81;21193;-60
2022/09/10 11:45:04;;;;;;;11.88;6.53;;;;;;;15.18;53.68;101359.47;1759234;81;21211;-60
2022/09/10 11:48:30;;;;;;;13.58;7.42;;;;;;;15.17;53.76;101344.84;1758753;81;21244;-58
2022/09/10 11:51:43;;;;;;;14.98;8.28;;;;;;;15.20;53.78;101333.95;1759093;81;21256;-60
2022/09/10 11:54:53;;;;;;;18.73;9.10;;;;;;;15.20;53.72;101332.57;1759262;81;21185;-59
2022/09/10 11:58:20;;;;;;;17.23;8.05;;;;;;;15.14;53.62;101324.52;1758968;81;21765;-61
2022/09/10 12:02:03;;;;;;;11.08;6.10;;;;;;;15.10;53.71;101325.04;1742761;82;21341;-60
2022/09/10 12:05:18;;;;;;;11.48;6.90;;;;;;;15.12;53.80;101321.59;1745615;82;21740;-58
2022/09/10 12:08:56;;;;;;;10.70;6.92;;;;;;;15.11;53.81;101310.23;1745431;81;21601;-59
2022/09/10 12:12:25;;;;;;;11.70;7.20;;;;;;;15.08;53.82;101305.91;1750602;80;21196;-60
2022/09/10 12:15:36;;;;;;;13.58;6.53;;;;;;;15.02;53.80;101305.27;1702239;84;21272;-58
2022/09/10 12:18:48;;;;;;;11.55;6.58;;;;;;;14.95;53.76;101297.41;1702450;83;21777;-60
2022/09/10 12:22:02;;;;;;;9.25;5.75;;;;;;;14.86;53.75;101302.61;1702554;84;21220;-59
2022/09/10 12:25:12;;;;;;;12.13;5.83;;;;;;;14.82;53.86;101299.38;1702780;84;21237;-59
2022/09/10 12:28:51;;;;;;;12.05;5.70;;;;;;;14.83;54.02;101290.57;1702620;83;21351;-59
2022/09/10 12:32:23;;;;;;;11.55;6.08;;;;;;;14.93;54.14;101285.19;1660829;83;21414;-60
2022/09/10 12:35:46;;;;;;;11.93;6.13;;;;;;;15.03;54.14;101291.84;1632555;86;21197;-60
2022/09/10 12:39:04;;;;;;;10.98;6.05;;;;;;;15.09;54.17;101286.97;1649188;85;21251;-59
2022/09/10 12:42:11;;;;;;;14.60;5.87;;;;;;;15.13;54.13;101286.92;1638667;87;21261;-60
2022/09/10 12:45:18;;;;;;;10.48;6.03;;;;;;;15.16;54.14;101282.42;1703221;84;21180;-60
2022/09/10 12:48:28;;;;;;;13.32;7.05;;;;;;;15.17;54.12;101283.28;1703447;83;21204;-59
2022/09/10 12:52:02;;;;;;;8.78;5.28;;;;;;;15.15;54.09;101275.20;1704232;84;21299;-59
2022/09/10 12:55:50;;;;;;;15.45;5.53;;;;;;;15.11;54.06;101274.37;1704339;84;21223;-60
2022/09/10 12:59:22;;;;;;;7.80;4.83;;;;;;;15.06;54.12;101265.27;1703954;83;21232;-59
2022/09/10 13:02:39;;;;;;;10.55;4.90;;;;;;;15.03;54.13;101265.64;1703766;83;21350;-59
2022/09/10 13:05:57;;;;;;;11.50;5.58;;;;;;;14.91;54.09;101261.58;1703638;84;21200;-59
2022/09/10 13:09:03;;;;;;;10.28;5.28;;;;;;;14.87;54.24;101257.48;1703674;83;21638;-59
2022/09/10 13:12:14;;;;;;;7.97;5.30;;;;;;;14.87;54.29;101255.56;1679299;84;21227;-58
2022/09/10 13:15:29;;;;;;;10.82;5.90;;;;;;;14.84;54.33;101241.30;1632846;87;21220;-59
2022/09/10 13:18:40;;;;;;;13.90;6.28;;;;;;;14.82;54.39;101242.87;1683816;84;21428;-58
2022/09/10 13:21:57;;;;;;;8.93;5.70;;;;;;;14.82;54.43;101240.63;1647938;87;21721;-59
2022/09/10 13:25:08;;;;;;;7.78;5.10;;;;;;;14.82;54.47;101233.73;1633679;88;21777;-58
2022/09/10 13:28:41;;;;;;;8.60;4.50;;;;;;;14.79;54.46;101233.55;1683833;84;21751;-60
2022/09/10 13:31:52;;;;;;;7.83;4.15;;;;;;;14.73;54.49;101227.94;1668762;82;21234;-58
2022/09/10 13:35:23;;;;;;;9.00;4.87;;;;;;;14.69;54.56;101219.68;1684083;84;22088;-60
2022/09/10 13:38:48;;;;;;;7.65;4.25;;;;;;;14.62;54.54;101227.81;1683396;84;21218;-60
2022/09/10 13:42:17;;;;;;;9.53;5.00;;;;;;;14.55;54.60;101218.58;1683853;83;21223;-59
2022/09/10 13:45:38;;;;;;;6.72;4.83;;;;;;;14.54;54.74;101211.87;1710729;82;21207;-57
2022/09/10 13:48:51;;;;;;;11.38;5.12;;;;;;;14.50;54.75;101211.37;1682184;85;21246;-59
2022/09/10 13:52:05;;;;;;;9.93;4.60;;;;;;;14.47;54.81;101202.59;1695303;84;21221;-58
2022/09/10 13:55:14;;;;;;;8.63;5.60;;;;;;;14.48;54.95;101204.30;1696404;84;21237;-60
2022/09/10 13:58:27;;;;;;;11.08;4.75;;;;;;;14.48;55.07;101199.66;1695399;84;21300;-59
2022/09/10 14:01:58;;;;;;;8.40;5.40;;;;;;;14.49;55.14;101200.52;1695848;84;21355;-59
2022/09/10 14:05:03;;;;;;;7.37;5.08;;;;;;;14.48;55.13;101196.91;1695300;84;21198;-60
2022/09/10 14:08:21;;;;;;;11.65;6.28;;;;;;;14.43;55.12;101188.86;1694935;84;21264;-59
2022/09/10 14:11:35;;;;;;;9.35;5.55;;;;;;;14.38;55.17;101176.98;1695370;84;21206;-59
2022/09/10 14:14:43;;;;;;;;;;;;;;;14.37;55.30;101179.41;1697747;84;21718;-59
2022/09/10 14:17:52;;;;;;;8.65;4.87;;;;;;;14.37;55.35;101178.54;1695616;84;20209;-59
2022/09/10 14:20:57;;;;;;;6.33;4.78;;;;;;;14.34;55.42;101166.50;1695374;84;21206;-58
2022/09/10 14:24:03;;;;;;;9.05;5.37;;;;;;;14.31;55.42;101164.98;1696151;83;21273;-60
2022/09/10 14:27:26;;;;;;;9.30;4.75;;;;;;;14.29;55.44;101169.80;1701448;84;21248;-59
2022/09/10 14:30:36;;;;;;;6.90;4.87;;;;;;;14.27;55.50;101164.16;1699132;84;21232;-60
2022/09/10 14:33:42;;;;;;;9.00;4.95;;;;;;;14.24;55.59;101160.36;1690740;83;21213;-58
2022/09/10 14:36:51;;;;;;;7.22;5.00;;;;;;;14.20;55.56;101159.84;1693105;85;21257;-59
2022/09/10 14:40:00;;;;;;;8.90;5.60;;;;;;;14.17;55.66;101150.58;1692864;85;21196;-59
2022/09/10 14:43:27;;;;;;;9.20;5.45;;;;;;;14.17;55.73;101146.45;1687608;84;21821;-60
2022/09/10 14:47:07;;;;;;;11.90;5.00;;;;;;;14.16;55.79;101145.25;1673532;84;21174;-60
2022/09/10 14:50:42;;;;;;;9.73;5.62;;;;;;;14.10;55.74;101150.07;1693061;84;21174;-59
2022/09/10 14:53:48;;;;;;;10.80;5.97;;;;;;;14.09;55.84;101160.25;1693601;84;21240;-60
2022/09/10 14:56:54;;;;;;;8.18;5.42;;;;;;;14.09;55.93;101177.28;1694799;84;21197;-59
2022/09/10 15:00:02;;;;;;;10.25;5.67;;;;;;;14.09;55.94;101174.02;1694685;84;21268;-60